Time;durP1;ratioP1;P1;durP2;ratioP2;P2;SDS_P1;SDS_P2;PMS_P1;PMS_P2;Temp;Humidity;BMP_temperature;BMP_pressure;BME280_temperature;BME280_humidity;BME280_pressure;Samples;Min_cycle;Max_cycle;Signal;HPM_P1;HPM_P2
2022/03/26 00:00:19;;;;;;;39.33;31.17;;;;;;;;;;5074091;28;25030;-54
2022/03/26 00:02:44;;;;;;;38.75;31.63;;;;;;;;;;5063542;28;24419;-53
2022/03/26 00:05:09;;;;;;;38.00;30.80;;;;;;;;;;5072698;28;24421;-53
2022/03/26 00:07:35;;;;;;;39.90;32.57;;;;;;;;;;5074160;28;24837;-53
2022/03/26 00:10:00;;;;;;;38.30;31.00;;;;;;;;;;5074012;28;24786;-53
2022/03/26 00:12:25;;;;;;;36.97;31.13;;;;;;;;;;5068370;28;24496;-53
2022/03/26 00:14:50;;;;;;;39.23;32.43;;;;;;;;;;5085325;28;24967;-53
2022/03/26 00:17:16;;;;;;;40.90;33.13;;;;;;;;;;5076449;28;24499;-53
2022/03/26 00:19:41;;;;;;;39.03;31.17;;;;;;;;;;5080579;28;24566;-53
2022/03/26 00:22:06;;;;;;;38.53;31.55;;;;;;;;;;5070585;28;24442;-52
2022/03/26 00:24:31;;;;;;;38.95;31.75;;;;;;;;;;5085632;28;24481;-53
2022/03/26 00:26:56;;;;;;;39.70;31.65;;;;;;;;;;5082083;28;24842;-53
2022/03/26 00:29:21;;;;;;;35.78;29.45;;;;;;;;;;5085428;28;24410;-53
2022/03/26 00:31:46;;;;;;;40.42;31.00;;;;;;;;;;5075210;28;24439;-52
2022/03/26 00:34:12;;;;;;;40.73;32.23;;;;;;;;;;5077342;28;24929;-53
2022/03/26 00:36:38;;;;;;;37.10;30.20;;;;;;;;;;5068594;28;24411;-53
2022/03/26 00:39:03;;;;;;;37.40;29.83;;;;;;;;;;5074708;28;24560;-53
2022/03/26 00:41:28;;;;;;;37.90;31.10;;;;;;;;;;5070622;28;25172;-53
2022/03/26 00:43:54;;;;;;;38.50;30.10;;;;;;;;;;5075077;28;24514;-53
2022/03/26 00:46:19;;;;;;;37.55;30.10;;;;;;;;;;5066376;28;24964;-53
2022/03/26 00:48:45;;;;;;;36.50;30.00;;;;;;;;;;5076785;28;24505;-53
2022/03/26 00:51:11;;;;;;;39.78;30.15;;;;;;;;;;5073532;28;24809;-53
2022/03/26 00:53:36;;;;;;;36.00;30.23;;;;;;;;;;5070241;28;24469;-53
2022/03/26 00:56:01;;;;;;;38.97;30.33;;;;;;;;;;5069748;28;24417;-53
2022/03/26 00:58:26;;;;;;;38.30;31.00;;;;;;;;;;5067777;28;24417;-53
2022/03/26 01:00:52;;;;;;;36.87;30.50;;;;;;;;;;5073090;28;24398;-53
2022/03/26 01:03:18;;;;;;;35.43;29.27;;;;;;;;;;5064664;28;24429;-53
2022/03/26 01:05:44;;;;;;;35.75;29.13;;;;;;;;;;5071294;28;24444;-53
2022/03/26 01:08:09;;;;;;;38.35;29.33;;;;;;;;;;5081928;28;24533;-54
2022/03/26 01:10:34;;;;;;;37.75;29.25;;;;;;;;;;5088505;28;24774;-53
2022/03/26 01:12:59;;;;;;;36.60;29.00;;;;;;;;;;5071784;28;24489;-53
2022/03/26 01:15:25;;;;;;;37.10;30.00;;;;;;;;;;5070304;28;24413;-54
2022/03/26 01:17:50;;;;;;;35.38;29.42;;;;;;;;;;5088217;28;25293;-53
2022/03/26 01:20:17;;;;;;;36.80;29.53;;;;;;;;;;5070012;28;25037;-53
2022/03/26 01:22:42;;;;;;;38.50;28.80;;;;;;;;;;5072712;28;24991;-53
2022/03/26 01:25:08;;;;;;;35.92;28.67;;;;;;;;;;5078308;28;24468;-54
2022/03/26 01:27:33;;;;;;;38.47;29.00;;;;;;;;;;5069938;28;24449;-53
2022/03/26 01:29:58;;;;;;;35.93;27.90;;;;;;;;;;5079195;28;24536;-53
2022/03/26 01:32:23;;;;;;;37.75;30.42;;;;;;;;;;5083335;28;24866;-54
2022/03/26 01:34:48;;;;;;;37.22;30.80;;;;;;;;;;5081373;28;25190;-53
2022/03/26 01:37:16;;;;;;;37.60;28.80;;;;;;;;;;5070705;28;24458;-53
2022/03/26 01:39:41;;;;;;;35.00;27.25;;;;;;;;;;5082884;28;24410;-53
2022/03/26 01:42:07;;;;;;;34.37;27.77;;;;;;;;;;5070635;28;24426;-53
2022/03/26 01:44:32;;;;;;;38.45;28.52;;;;;;;;;;5077906;28;24480;-53
2022/03/26 01:46:59;;;;;;;36.53;28.73;;;;;;;;;;5072160;28;25064;-53
2022/03/26 01:49:24;;;;;;;34.47;28.30;;;;;;;;;;5086176;28;24425;-53
2022/03/26 01:51:50;;;;;;;32.95;27.33;;;;;;;;;;5078149;28;24529;-55
2022/03/26 01:54:16;;;;;;;37.50;28.70;;;;;;;;;;5088617;28;24402;-53
2022/03/26 01:56:42;;;;;;;35.95;27.83;;;;;;;;;;5082407;28;25091;-53
2022/03/26 01:59:07;;;;;;;33.80;26.17;;;;;;;;;;5073992;28;25011;-53
2022/03/26 02:01:33;;;;;;;31.40;26.00;;;;;;;;;;5078554;28;24421;-53
2022/03/26 02:03:59;;;;;;;35.47;27.52;;;;;;;;;;5072468;28;24423;-53
2022/03/26 02:06:28;;;;;;;35.22;27.08;;;;;;;;;;5075052;28;24422;-53
2022/03/26 02:08:53;;;;;;;34.95;26.80;;;;;;;;;;5078771;28;24422;-53
2022/03/26 02:11:18;;;;;;;32.50;26.25;;;;;;;;;;5086920;28;24426;-53
2022/03/26 02:13:50;;;;;;;35.40;26.37;;;;;;;;;;5079404;28;24422;-53
2022/03/26 02:16:15;;;;;;;34.78;26.85;;;;;;;;;;5081629;28;24423;-53
2022/03/26 02:18:40;;;;;;;36.40;27.80;;;;;;;;;;5078575;28;24540;-53
2022/03/26 02:21:06;;;;;;;34.00;26.43;;;;;;;;;;5071673;28;24430;-53
2022/03/26 02:23:31;;;;;;;32.70;25.63;;;;;;;;;;5085283;28;25217;-53
2022/03/26 02:25:56;;;;;;;35.40;26.80;;;;;;;;;;5087576;28;24533;-53
2022/03/26 02:28:22;;;;;;;35.30;26.57;;;;;;;;;;5070453;28;24470;-52
2022/03/26 02:30:47;;;;;;;33.30;26.57;;;;;;;;;;5070274;28;24983;-53
2022/03/26 02:33:12;;;;;;;35.22;26.08;;;;;;;;;;5082103;28;25025;-52
2022/03/26 02:35:37;;;;;;;33.10;25.13;;;;;;;;;;5077471;28;24522;-53
2022/03/26 02:38:03;;;;;;;33.22;26.25;;;;;;;;;;5077931;28;24489;-53
2022/03/26 02:40:28;;;;;;;34.37;27.00;;;;;;;;;;5073238;28;24435;-52
2022/03/26 02:42:53;;;;;;;32.00;25.80;;;;;;;;;;5086090;28;24826;-53
2022/03/26 02:45:18;;;;;;;33.07;26.23;;;;;;;;;;5077560;28;24824;-53
2022/03/26 02:47:43;;;;;;;33.70;26.23;;;;;;;;;;5074312;28;24976;-52
2022/03/26 02:50:09;;;;;;;32.33;25.67;;;;;;;;;;5067186;28;24523;-53
2022/03/26 02:52:35;;;;;;;31.87;25.40;;;;;;;;;;5068187;28;24433;-53
2022/03/26 02:55:01;;;;;;;31.90;25.45;;;;;;;;;;5073076;28;24472;-53
2022/03/26 02:57:26;;;;;;;31.88;26.00;;;;;;;;;;5069238;28;24519;-53
2022/03/26 02:59:51;;;;;;;31.58;24.75;;;;;;;;;;5072554;28;24417;-53
2022/03/26 03:02:16;;;;;;;33.03;26.17;;;;;;;;;;5075526;28;24578;-53
2022/03/26 03:04:42;;;;;;;32.67;25.83;;;;;;;;;;5069874;28;24483;-53
2022/03/26 03:07:08;;;;;;;33.50;26.50;;;;;;;;;;5069539;28;24418;-53
2022/03/26 03:09:33;;;;;;;32.67;26.23;;;;;;;;;;5078162;28;24420;-53
2022/03/26 03:11:58;;;;;;;33.80;26.80;;;;;;;;;;5065884;28;24431;-54
2022/03/26 03:14:23;;;;;;;34.42;27.23;;;;;;;;;;5069878;28;24425;-53
2022/03/26 03:16:49;;;;;;;35.77;26.83;;;;;;;;;;5076458;28;24417;-54
2022/03/26 03:19:15;;;;;;;32.43;25.30;;;;;;;;;;5067826;28;24531;-53
2022/03/26 03:21:40;;;;;;;34.75;27.25;;;;;;;;;;5081059;28;24947;-53
2022/03/26 03:24:05;;;;;;;35.38;27.25;;;;;;;;;;5085414;28;24426;-53
2022/03/26 03:26:31;;;;;;;34.28;26.70;;;;;;;;;;5077048;28;24991;-53
2022/03/26 03:28:57;;;;;;;34.45;26.38;;;;;;;;;;5085748;28;24478;-54
2022/03/26 03:31:23;;;;;;;32.60;26.30;;;;;;;;;;5083067;28;24422;-53
2022/03/26 03:33:48;;;;;;;33.25;25.73;;;;;;;;;;5077370;28;24449;-53
2022/03/26 03:36:13;;;;;;;34.08;26.85;;;;;;;;;;5067819;28;24572;-53
2022/03/26 03:38:38;;;;;;;32.37;26.13;;;;;;;;;;5080178;28;24777;-53
2022/03/26 03:41:04;;;;;;;36.23;27.33;;;;;;;;;;5076798;28;24487;-53
2022/03/26 03:43:29;;;;;;;35.70;26.03;;;;;;;;;;5080055;28;24418;-53
2022/03/26 03:45:54;;;;;;;35.67;26.43;;;;;;;;;;5068310;28;24407;-52
2022/03/26 03:48:19;;;;;;;33.77;27.40;;;;;;;;;;5067581;28;24951;-53
2022/03/26 03:50:48;;;;;;;33.97;27.00;;;;;;;;;;5079225;28;24445;-53
2022/03/26 03:53:15;;;;;;;35.00;26.10;;;;;;;;;;5082306;28;25139;-54
2022/03/26 03:55:40;;;;;;;36.50;26.45;;;;;;;;;;5086407;28;24923;-53
2022/03/26 03:58:05;;;;;;;31.77;25.55;;;;;;;;;;5083521;28;24466;-53
2022/03/26 04:00:30;;;;;;;34.77;26.80;;;;;;;;;;5080179;28;24820;-54
2022/03/26 04:02:55;;;;;;;32.05;25.05;;;;;;;;;;5083563;28;24855;-53
2022/03/26 04:05:21;;;;;;;30.00;25.27;;;;;;;;;;5086550;28;24605;-53
2022/03/26 04:07:46;;;;;;;34.70;26.77;;;;;;;;;;5077636;28;24453;-52
2022/03/26 04:10:12;;;;;;;33.47;25.73;;;;;;;;;;5067989;28;24980;-52
2022/03/26 04:12:38;;;;;;;31.95;23.80;;;;;;;;;;5072197;28;24968;-52
2022/03/26 04:15:04;;;;;;;32.22;25.13;;;;;;;;;;5080622;28;24490;-52
2022/03/26 04:17:29;;;;;;;31.00;25.27;;;;;;;;;;5084837;28;25051;-52
2022/03/26 04:19:54;;;;;;;31.92;25.55;;;;;;;;;;5068145;28;24433;-52
2022/03/26 04:22:19;;;;;;;31.88;25.92;;;;;;;;;;5069273;28;24845;-52
2022/03/26 04:24:44;;;;;;;34.10;25.33;;;;;;;;;;5077739;28;24425;-52
2022/03/26 04:27:09;;;;;;;34.15;26.52;;;;;;;;;;5079951;28;25238;-52
2022/03/26 04:29:35;;;;;;;33.30;25.60;;;;;;;;;;5084930;28;24464;-52
2022/03/26 04:32:00;;;;;;;36.10;25.83;;;;;;;;;;5069261;28;24438;-51
2022/03/26 04:34:25;;;;;;;33.08;25.38;;;;;;;;;;5067770;28;24992;-51
2022/03/26 04:36:51;;;;;;;33.13;26.20;;;;;;;;;;5081460;28;24457;-52
2022/03/26 04:39:16;;;;;;;34.90;25.10;;;;;;;;;;5082329;28;24564;-51
2022/03/26 04:41:41;;;;;;;32.75;25.63;;;;;;;;;;5070818;28;24419;-51
2022/03/26 04:44:06;;;;;;;34.75;25.80;;;;;;;;;;5080261;28;26385;-51
2022/03/26 04:46:32;;;;;;;34.73;25.87;;;;;;;;;;5088706;28;24412;-51
2022/03/26 04:48:58;;;;;;;33.75;26.40;;;;;;;;;;5089025;28;24555;-51
2022/03/26 04:51:23;;;;;;;33.37;25.80;;;;;;;;;;5085378;28;24529;-52
2022/03/26 04:53:48;;;;;;;33.22;25.10;;;;;;;;;;5080671;28;24532;-52
2022/03/26 04:56:14;;;;;;;31.73;25.67;;;;;;;;;;5081095;28;24976;-52
2022/03/26 04:58:39;;;;;;;32.77;25.37;;;;;;;;;;5081978;28;24456;-51
2022/03/26 05:01:05;;;;;;;35.90;26.07;;;;;;;;;;5076955;28;24428;-52
2022/03/26 05:03:30;;;;;;;33.30;25.70;;;;;;;;;;5070857;28;24426;-52
2022/03/26 05:05:55;;;;;;;34.65;25.10;;;;;;;;;;5088641;28;24422;-52
2022/03/26 05:08:21;;;;;;;33.58;24.65;;;;;;;;;;5074661;28;24804;-52
2022/03/26 05:10:46;;;;;;;34.13;25.10;;;;;;;;;;5069781;28;24414;-52
2022/03/26 05:13:11;;;;;;;34.35;24.85;;;;;;;;;;5072623;28;25043;-52
2022/03/26 05:15:36;;;;;;;33.70;24.70;;;;;;;;;;5085232;28;24418;-52
2022/03/26 05:18:03;;;;;;;32.00;25.00;;;;;;;;;;5067095;28;24496;-54
2022/03/26 05:20:28;;;;;;;31.88;24.60;;;;;;;;;;5073087;28;24983;-52
2022/03/26 05:23:11;;;;;;;31.23;24.30;;;;;;;;;;5074783;28;24427;-53
2022/03/26 05:25:36;;;;;;;33.53;25.27;;;;;;;;;;5097435;28;24425;-53
2022/03/26 05:28:02;;;;;;;32.28;24.33;;;;;;;;;;5093492;28;24441;-54
2022/03/26 05:30:27;;;;;;;35.03;25.08;;;;;;;;;;5084120;28;24541;-54
2022/03/26 05:32:52;;;;;;;31.87;24.83;;;;;;;;;;5074793;28;24952;-54
2022/03/26 05:35:18;;;;;;;31.67;24.02;;;;;;;;;;5090681;28;24420;-54
2022/03/26 05:37:44;;;;;;;31.13;24.27;;;;;;;;;;5092134;28;24418;-54
2022/03/26 05:40:13;;;;;;;33.78;24.70;;;;;;;;;;5099696;28;24425;-54
2022/03/26 05:42:38;;;;;;;33.47;26.05;;;;;;;;;;5077924;28;24532;-53
2022/03/26 05:45:04;;;;;;;33.10;25.05;;;;;;;;;;5083643;28;24426;-54
2022/03/26 05:47:30;;;;;;;36.30;26.13;;;;;;;;;;5096014;28;24417;-53
2022/03/26 05:49:55;;;;;;;35.10;25.52;;;;;;;;;;5075084;28;24433;-54
2022/03/26 05:52:20;;;;;;;33.80;25.45;;;;;;;;;;5094963;28;24524;-54
2022/03/26 05:54:45;;;;;;;35.15;25.95;;;;;;;;;;5077258;28;25045;-54
2022/03/26 05:57:16;;;;;;;32.45;25.50;;;;;;;;;;5076887;28;24464;-55
2022/03/26 05:59:41;;;;;;;34.85;24.58;;;;;;;;;;5089041;28;24414;-53
2022/03/26 06:02:10;;;;;;;32.20;24.92;;;;;;;;;;5078569;27;24418;-55
2022/03/26 06:04:35;;;;;;;34.40;26.08;;;;;;;;;;5069711;28;24832;-53
2022/03/26 06:07:01;;;;;;;33.80;25.53;;;;;;;;;;5080097;28;24418;-54
2022/03/26 06:09:26;;;;;;;33.80;25.57;;;;;;;;;;5085068;28;24433;-53
2022/03/26 06:11:51;;;;;;;30.80;24.30;;;;;;;;;;5069716;28;24430;-53
2022/03/26 06:14:18;;;;;;;31.80;24.10;;;;;;;;;;5068809;28;24417;-53
2022/03/26 06:16:43;;;;;;;33.72;24.33;;;;;;;;;;5076720;28;24738;-53
2022/03/26 06:19:08;;;;;;;29.03;24.03;;;;;;;;;;5090771;28;24448;-52
2022/03/26 06:21:34;;;;;;;33.55;25.35;;;;;;;;;;5093300;28;24457;-53
2022/03/26 06:23:59;;;;;;;31.30;24.17;;;;;;;;;;5070433;28;24781;-53
2022/03/26 06:26:26;;;;;;;28.52;23.27;;;;;;;;;;5077293;28;24449;-53
2022/03/26 06:28:51;;;;;;;30.45;24.05;;;;;;;;;;5068921;28;24576;-54
2022/03/26 06:31:16;;;;;;;34.03;24.70;;;;;;;;;;5069660;28;24426;-54
2022/03/26 06:33:41;;;;;;;31.33;24.87;;;;;;;;;;5072598;28;24781;-54
2022/03/26 06:36:06;;;;;;;30.75;23.30;;;;;;;;;;5074977;28;24505;-54
2022/03/26 06:38:38;;;;;;;33.38;25.05;;;;;;;;;;5079556;28;24420;-54
2022/03/26 06:41:03;;;;;;;34.10;25.05;;;;;;;;;;5074788;28;24413;-53
2022/03/26 06:43:28;;;;;;;33.05;25.05;;;;;;;;;;5076412;28;24529;-53
2022/03/26 06:45:53;;;;;;;31.35;24.27;;;;;;;;;;5075345;28;24430;-54
2022/03/26 06:48:19;;;;;;;30.65;24.23;;;;;;;;;;5078174;28;24836;-54
2022/03/26 06:50:44;;;;;;;33.47;25.17;;;;;;;;;;5068665;28;24422;-53
2022/03/26 06:53:09;;;;;;;32.87;24.40;;;;;;;;;;5070391;28;24522;-53
2022/03/26 06:55:34;;;;;;;30.93;22.80;;;;;;;;;;5071272;28;24717;-53
2022/03/26 06:57:59;;;;;;;30.55;24.60;;;;;;;;;;5069490;28;24433;-53
2022/03/26 07:00:25;;;;;;;32.50;24.02;;;;;;;;;;5069072;28;24481;-54
2022/03/26 07:02:50;;;;;;;27.95;23.55;;;;;;;;;;5068114;28;24496;-54
2022/03/26 07:05:15;;;;;;;31.13;25.20;;;;;;;;;;5069042;28;24437;-53
2022/03/26 07:07:40;;;;;;;30.07;24.00;;;;;;;;;;5074445;28;24410;-53
2022/03/26 07:10:06;;;;;;;32.83;24.53;;;;;;;;;;5082476;28;24430;-53
2022/03/26 07:12:31;;;;;;;32.60;25.50;;;;;;;;;;5073435;28;24429;-53
2022/03/26 07:14:57;;;;;;;32.80;25.23;;;;;;;;;;5072358;28;24418;-54
2022/03/26 07:17:22;;;;;;;32.00;22.97;;;;;;;;;;5081692;28;24402;-54
2022/03/26 07:19:47;;;;;;;31.55;23.92;;;;;;;;;;5078690;28;24461;-53
2022/03/26 07:22:12;;;;;;;33.97;24.50;;;;;;;;;;5074007;28;24421;-53
2022/03/26 07:24:37;;;;;;;30.38;23.83;;;;;;;;;;5069238;28;24804;-53
2022/03/26 07:27:03;;;;;;;28.97;23.07;;;;;;;;;;5071637;28;25046;-53
2022/03/26 07:29:28;;;;;;;32.67;24.20;;;;;;;;;;5070298;28;24782;-53
2022/03/26 07:31:54;;;;;;;28.10;23.10;;;;;;;;;;5066829;28;24477;-53
2022/03/26 07:34:20;;;;;;;30.27;23.13;;;;;;;;;;5073603;28;24525;-52
2022/03/26 07:36:45;;;;;;;30.07;23.90;;;;;;;;;;5072347;28;24514;-53
2022/03/26 07:39:10;;;;;;;31.38;24.02;;;;;;;;;;5074411;28;24491;-53
2022/03/26 07:41:35;;;;;;;29.27;24.30;;;;;;;;;;5072850;28;25022;-53
2022/03/26 07:44:00;;;;;;;29.90;23.27;;;;;;;;;;5070351;28;24483;-53
2022/03/26 07:46:26;;;;;;;29.65;24.02;;;;;;;;;;5066380;28;24922;-53
2022/03/26 07:48:51;;;;;;;30.90;23.63;;;;;;;;;;5070142;28;24472;-53
2022/03/26 07:51:16;;;;;;;28.50;23.43;;;;;;;;;;5074076;28;24481;-53
2022/03/26 07:53:41;;;;;;;34.40;25.77;;;;;;;;;;5070859;28;24434;-53
2022/03/26 07:56:07;;;;;;;34.00;25.67;;;;;;;;;;5068860;28;24438;-53
2022/03/26 07:58:32;;;;;;;35.70;27.48;;;;;;;;;;5066316;28;24419;-54
2022/03/26 08:00:57;;;;;;;31.08;24.35;;;;;;;;;;5074602;28;24419;-54
2022/03/26 08:03:24;;;;;;;33.90;26.03;;;;;;;;;;5070687;28;24447;-54
2022/03/26 08:05:49;;;;;;;30.25;25.13;;;;;;;;;;5072340;28;24471;-53
2022/03/26 08:08:15;;;;;;;29.92;24.52;;;;;;;;;;5072652;28;24430;-52
2022/03/26 08:10:40;;;;;;;32.70;25.70;;;;;;;;;;5081645;28;24975;-52
2022/03/26 08:13:05;;;;;;;28.45;24.10;;;;;;;;;;5069029;28;24525;-52
2022/03/26 08:15:30;;;;;;;31.27;24.27;;;;;;;;;;5083233;28;24995;-51
2022/03/26 08:17:58;;;;;;;35.87;26.80;;;;;;;;;;5068919;28;24448;-52
2022/03/26 08:20:24;;;;;;;30.55;25.48;;;;;;;;;;5074622;28;24419;-52
2022/03/26 08:22:49;;;;;;;29.60;24.50;;;;;;;;;;5068610;28;25276;-52
2022/03/26 08:26:19;;;;;;;32.10;25.70;;;;;;;;;;5067097;28;24975;-52
2022/03/26 08:28:04;;;;;;;35.50;27.55;;;;;;;;;;5075800;28;24492;-52
2022/03/26 08:30:29;;;;;;;36.58;27.35;;;;;;;;;;5088992;28;24429;-51
2022/03/26 08:32:54;;;;;;;35.60;29.35;;;;;;;;;;5068717;28;24442;-52
2022/03/26 08:35:19;;;;;;;35.03;26.00;;;;;;;;;;5084084;28;24952;-52
2022/03/26 08:37:44;;;;;;;34.30;28.20;;;;;;;;;;5086465;28;24501;-52
2022/03/26 08:40:10;;;;;;;33.05;26.65;;;;;;;;;;5086828;28;24783;-52
2022/03/26 08:42:35;;;;;;;40.25;30.85;;;;;;;;;;5084020;28;25406;-53
2022/03/26 08:45:00;;;;;;;38.90;30.20;;;;;;;;;;5086575;28;24472;-51
2022/03/26 08:47:25;;;;;;;39.28;30.75;;;;;;;;;;5080934;28;24521;-51
2022/03/26 08:49:50;;;;;;;38.10;31.48;;;;;;;;;;5080283;28;24669;-52
2022/03/26 08:52:17;;;;;;;39.60;30.80;;;;;;;;;;5068496;28;24453;-53
2022/03/26 08:54:42;;;;;;;38.35;30.90;;;;;;;;;;5070980;28;24441;-54
2022/03/26 08:57:08;;;;;;;36.70;29.83;;;;;;;;;;5066102;28;24422;-52
2022/03/26 08:59:33;;;;;;;36.97;29.88;;;;;;;;;;5069525;28;24433;-52
2022/03/26 09:01:58;;;;;;;37.90;29.47;;;;;;;;;;5071270;28;24422;-52
2022/03/26 09:04:24;;;;;;;40.13;30.85;;;;;;;;;;5066108;28;24417;-53
2022/03/26 09:06:50;;;;;;;36.17;30.52;;;;;;;;;;5067646;28;24530;-52
2022/03/26 09:09:16;;;;;;;38.97;29.63;;;;;;;;;;5071111;28;24472;-52
2022/03/26 09:11:43;;;;;;;36.10;28.07;;;;;;;;;;5069891;28;24438;-52
2022/03/26 09:14:08;;;;;;;42.05;29.33;;;;;;;;;;5074799;28;24515;-52
2022/03/26 09:16:33;;;;;;;40.47;28.77;;;;;;;;;;5077013;28;24518;-52
2022/03/26 09:18:59;;;;;;;37.55;28.90;;;;;;;;;;5064720;28;24515;-52
2022/03/26 09:21:24;;;;;;;38.90;29.67;;;;;;;;;;5074389;28;24446;-53
2022/03/26 09:23:49;;;;;;;38.37;27.70;;;;;;;;;;5065691;28;24788;-52
2022/03/26 09:26:14;;;;;;;37.92;29.15;;;;;;;;;;5078876;28;25138;-53
2022/03/26 09:28:40;;;;;;;35.33;26.95;;;;;;;;;;5084866;28;25062;-52
2022/03/26 09:31:05;;;;;;;36.80;29.00;;;;;;;;;;5077715;28;24465;-52
2022/03/26 09:33:30;;;;;;;39.95;28.58;;;;;;;;;;5085231;28;24433;-53
2022/03/26 09:35:55;;;;;;;34.80;27.15;;;;;;;;;;5074423;28;24517;-52
2022/03/26 09:38:20;;;;;;;31.95;25.27;;;;;;;;;;5096262;28;24423;-52
2022/03/26 09:40:45;;;;;;;38.65;28.17;;;;;;;;;;5081198;28;24788;-52
2022/03/26 09:43:12;;;;;;;36.55;27.70;;;;;;;;;;5086005;28;24448;-52
2022/03/26 09:45:37;;;;;;;35.85;25.67;;;;;;;;;;5072239;28;24494;-52
2022/03/26 09:48:03;;;;;;;37.25;25.70;;;;;;;;;;5100746;28;24802;-52
2022/03/26 09:50:29;;;;;;;34.63;25.70;;;;;;;;;;5105938;28;24426;-53
2022/03/26 09:52:55;;;;;;;36.00;26.33;;;;;;;;;;5076879;28;24491;-53
2022/03/26 09:55:21;;;;;;;35.00;24.30;;;;;;;;;;5071196;28;24412;-52
2022/03/26 09:57:47;;;;;;;33.90;24.23;;;;;;;;;;5080853;28;24401;-52
2022/03/26 10:00:13;;;;;;;32.77;24.07;;;;;;;;;;5096252;28;24481;-53
2022/03/26 10:02:38;;;;;;;34.47;23.77;;;;;;;;;;5067990;28;24434;-52
2022/03/26 10:05:04;;;;;;;33.20;23.73;;;;;;;;;;5068346;28;24996;-52
2022/03/26 10:07:29;;;;;;;36.50;23.90;;;;;;;;;;5068554;28;24422;-52
2022/03/26 10:09:55;;;;;;;33.10;24.52;;;;;;;;;;5070707;28;24440;-53
2022/03/26 10:12:26;;;;;;;33.08;22.58;;;;;;;;;;5077178;28;24479;-52
2022/03/26 10:14:52;;;;;;;37.60;26.73;;;;;;;;;;5068896;28;24414;-52
2022/03/26 10:17:22;;;;;;;33.08;23.33;;;;;;;;;;5073010;28;24785;-53
2022/03/26 10:19:48;;;;;;;31.00;21.70;;;;;;;;;;5078797;28;24864;-52
2022/03/26 10:22:23;;;;;;;32.63;22.40;;;;;;;;;;5068077;28;24488;-52
2022/03/26 10:24:48;;;;;;;31.00;22.73;;;;;;;;;;5068408;28;24425;-52
2022/03/26 10:27:13;;;;;;;32.93;24.10;;;;;;;;;;5077157;28;24446;-53
2022/03/26 10:29:52;;;;;;;34.10;23.67;;;;;;;;;;5082335;28;25024;-53
2022/03/26 10:32:39;;;;;;;35.00;23.52;;;;;;;;;;5077385;28;24433;-52
2022/03/26 10:35:06;;;;;;;31.77;22.08;;;;;;;;;;5083871;28;24952;-53
2022/03/26 10:37:40;;;;;;;28.13;21.73;;;;;;;;;;5065865;28;25293;-52
2022/03/26 10:40:16;;;;;;;30.95;21.00;;;;;;;;;;5072434;28;24799;-52
2022/03/26 10:42:41;;;;;;;27.88;21.88;;;;;;;;;;5066321;28;24415;-52
2022/03/26 10:45:12;;;;;;;30.17;22.20;;;;;;;;;;5066931;28;24527;-52
2022/03/26 10:47:37;;;;;;;29.77;21.75;;;;;;;;;;5067187;28;24987;-52
2022/03/26 10:50:04;;;;;;;24.17;19.30;;;;;;;;;;5071950;28;24430;-53
2022/03/26 10:52:30;;;;;;;25.88;20.13;;;;;;;;;;5068510;28;24564;-53
2022/03/26 10:54:55;;;;;;;24.83;19.30;;;;;;;;;;5068089;28;24552;-52
2022/03/26 10:57:24;;;;;;;23.23;18.37;;;;;;;;;;5081801;28;24443;-52
2022/03/26 10:59:51;;;;;;;23.00;18.55;;;;;;;;;;5069642;28;24995;-52
2022/03/26 11:02:16;;;;;;;22.20;17.95;;;;;;;;;;5076020;28;24900;-52
2022/03/26 11:04:41;;;;;;;25.30;19.73;;;;;;;;;;5067521;28;25173;-52
2022/03/26 11:07:07;;;;;;;21.70;17.50;;;;;;;;;;5071086;28;24413;-52
2022/03/26 11:09:32;;;;;;;22.50;18.30;;;;;;;;;;5070766;28;24407;-52
2022/03/26 11:11:58;;;;;;;25.13;18.23;;;;;;;;;;5070750;28;25057;-52
2022/03/26 11:14:25;;;;;;;21.90;18.00;;;;;;;;;;5081549;28;24972;-52
2022/03/26 11:17:09;;;;;;;20.75;16.65;;;;;;;;;;5078417;28;24499;-52
2022/03/26 11:19:41;;;;;;;20.58;15.80;;;;;;;;;;5077389;28;24438;-53
2022/03/26 11:22:13;;;;;;;19.55;16.20;;;;;;;;;;5067900;28;24964;-52
2022/03/26 11:24:57;;;;;;;19.23;17.02;;;;;;;;;;5072591;28;24434;-52
2022/03/26 11:27:22;;;;;;;19.90;16.85;;;;;;;;;;5066701;28;24451;-53
2022/03/26 11:30:14;;;;;;;21.65;17.05;;;;;;;;;;5079617;28;24417;-53
2022/03/26 11:32:51;;;;;;;20.08;17.02;;;;;;;;;;5086147;28;25056;-53
2022/03/26 11:35:49;;;;;;;22.33;16.95;;;;;;;;;;5079242;28;20779;-54
2022/03/26 11:38:14;;;;;;;23.33;18.23;;;;;;;;;;5081931;28;25020;-53
2022/03/26 11:40:39;;;;;;;19.97;17.57;;;;;;;;;;5069219;28;24510;-53
2022/03/26 11:43:05;;;;;;;19.80;17.20;;;;;;;;;;5068552;28;24459;-51
2022/03/26 11:51:19;;;;;;;18.60;15.20;;;;;;;;;;5086406;28;24439;-52
2022/03/26 11:53:44;;;;;;;20.15;16.27;;;;;;;;;;5072307;28;24442;-52
2022/03/26 11:56:30;;;;;;;20.15;15.75;;;;;;;;;;5086673;28;24425;-51
2022/03/26 11:59:04;;;;;;;17.60;14.75;;;;;;;;;;5067937;28;24616;-51
2022/03/26 12:01:40;;;;;;;14.30;12.80;;;;;;;;;;5067288;28;25029;-51
2022/03/26 12:04:09;;;;;;;16.50;14.68;;;;;;;;;;5064602;28;24816;-51
2022/03/26 12:06:42;;;;;;;16.02;14.35;;;;;;;;;;5080774;28;24450;-52
2022/03/26 12:09:08;;;;;;;15.93;14.15;;;;;;;;;;5067501;28;24468;-52
2022/03/26 12:11:34;;;;;;;16.20;14.50;;;;;;;;;;5066080;28;24512;-51
2022/03/26 12:14:03;;;;;;;18.97;15.33;;;;;;;;;;5066402;28;24847;-51
2022/03/26 12:16:47;;;;;;;17.35;13.52;;;;;;;;;;5067501;28;24421;-51
2022/03/26 12:19:32;;;;;;;16.30;14.25;;;;;;;;;;5066281;28;24435;-52
2022/03/26 12:21:57;;;;;;;14.80;13.23;;;;;;;;;;5066404;28;24992;-52
2022/03/26 12:24:28;;;;;;;16.50;12.82;;;;;;;;;;5066342;28;24473;-52
2022/03/26 12:26:53;;;;;;;15.77;13.60;;;;;;;;;;5067105;28;24528;-52
2022/03/26 12:29:19;;;;;;;15.73;14.03;;;;;;;;;;5077278;28;24430;-52
2022/03/26 12:31:49;;;;;;;16.55;14.23;;;;;;;;;;5076608;28;24434;-52
2022/03/26 12:34:14;;;;;;;18.90;14.30;;;;;;;;;;5084157;28;25001;-52
2022/03/26 12:36:40;;;;;;;18.73;15.67;;;;;;;;;;5070689;28;24517;-53
2022/03/26 12:39:05;;;;;;;15.80;14.30;;;;;;;;;;5076722;28;24474;-52
2022/03/26 12:41:30;;;;;;;17.60;15.13;;;;;;;;;;5065436;28;24427;-52
2022/03/26 12:43:56;;;;;;;17.40;15.50;;;;;;;;;;5079347;28;24506;-52
2022/03/26 12:46:29;;;;;;;18.63;15.13;;;;;;;;;;5066078;28;24427;-53
2022/03/26 12:48:55;;;;;;;18.50;15.70;;;;;;;;;;5066263;28;24576;-52
2022/03/26 12:51:22;;;;;;;16.85;15.05;;;;;;;;;;5066754;28;24518;-52
2022/03/26 12:53:47;;;;;;;20.52;15.50;;;;;;;;;;5065911;28;24411;-51
2022/03/26 12:56:14;;;;;;;18.27;16.15;;;;;;;;;;5080858;28;24479;-50
2022/03/26 12:58:57;;;;;;;18.08;14.60;;;;;;;;;;5066138;28;24413;-52
2022/03/26 13:01:23;;;;;;;18.63;16.13;;;;;;;;;;5072771;28;25105;-52
2022/03/26 13:03:49;;;;;;;17.90;15.18;;;;;;;;;;5095470;28;24760;-51
2022/03/26 13:06:15;;;;;;;19.92;15.27;;;;;;;;;;5071716;28;24506;-54
2022/03/26 13:08:47;;;;;;;18.10;15.48;;;;;;;;;;5091897;28;24407;-54
2022/03/26 13:11:12;;;;;;;18.73;16.65;;;;;;;;;;5076373;28;24410;-54
2022/03/26 13:13:48;;;;;;;23.25;17.70;;;;;;;;;;5069376;28;24479;-54
2022/03/26 13:16:15;;;;;;;20.52;16.67;;;;;;;;;;5069337;28;24406;-51
2022/03/26 13:18:44;;;;;;;19.40;16.92;;;;;;;;;;5074330;28;24471;-51
2022/03/26 13:21:10;;;;;;;17.83;15.93;;;;;;;;;;5089841;28;24411;-52
2022/03/26 13:23:35;;;;;;;19.17;17.00;;;;;;;;;;5069479;28;24834;-51
2022/03/26 13:26:04;;;;;;;17.05;15.25;;;;;;;;;;5073533;28;24444;-53
2022/03/26 13:28:33;;;;;;;18.30;16.40;;;;;;;;;;5087737;28;24487;-53
2022/03/26 13:30:58;;;;;;;17.80;15.90;;;;;;;;;;5087434;28;24445;-51
2022/03/26 13:33:28;;;;;;;19.47;16.60;;;;;;;;;;5069484;28;25007;-52
2022/03/26 13:36:05;;;;;;;17.40;15.57;;;;;;;;;;5068581;28;25027;-52
2022/03/26 13:38:38;;;;;;;18.73;14.95;;;;;;;;;;5084885;28;24476;-52
2022/03/26 13:41:17;;;;;;;16.42;14.10;;;;;;;;;;5078737;28;24442;-52
2022/03/26 13:43:43;;;;;;;19.40;15.82;;;;;;;;;;5080612;28;24484;-52
2022/03/26 13:46:09;;;;;;;17.52;15.63;;;;;;;;;;5069736;28;24411;-52
2022/03/26 13:48:53;;;;;;;16.90;15.10;;;;;;;;;;5082034;28;24420;-51
2022/03/26 13:51:25;;;;;;;16.50;13.15;;;;;;;;;;5073489;28;24558;-52
2022/03/26 13:53:50;;;;;;;15.88;13.70;;;;;;;;;;5072570;28;24414;-51
2022/03/26 13:56:16;;;;;;;18.73;15.38;;;;;;;;;;5083531;28;24409;-53
2022/03/26 13:58:43;;;;;;;19.13;14.75;;;;;;;;;;5082676;28;24415;-53
2022/03/26 14:01:09;;;;;;;14.85;13.35;;;;;;;;;;5078949;28;24567;-52
2022/03/26 14:03:40;;;;;;;15.77;13.77;;;;;;;;;;5078840;28;25000;-53
2022/03/26 14:06:06;;;;;;;14.90;13.25;;;;;;;;;;5086435;28;24706;-53
2022/03/26 14:08:31;;;;;;;14.20;12.70;;;;;;;;;;5069135;28;25225;-53
2022/03/26 14:10:56;;;;;;;15.00;12.10;;;;;;;;;;5068506;28;24418;-52
2022/03/26 14:13:22;;;;;;;13.90;11.00;;;;;;;;;;5070535;28;24752;-52
2022/03/26 14:15:50;;;;;;;12.23;10.93;;;;;;;;;;5079858;28;24517;-52
2022/03/26 14:18:15;;;;;;;13.38;10.98;;;;;;;;;;5082504;28;24434;-52